Elfrida, Arizona
Current Conditions -  °F | °C
As of 9:56 AM on Friday 21 Nov 2014 (Local Time) from KDUG Reporting Station
Clear Clear  
Wind Chill: 54°   Ceiling: Unl
Heat Index: 54°   Visibility: 10mi
Dew Point: 22°   Wind: 0mph
Humidity: 29%   Direction: NA
Pressure: 30.03"   Gusts: NA
Location:  31.69°N, 109.69°W
Report Text: KDUG 211656Z AUTO 00000KT 10SM CLR 12/M06 A3003 RMK AO2 SLP141 T01221056
Loading
Personal Weather Stations






























Interactive Weather Map New forecast layout! Learn more

10-Day Weather Forecast

Advertisements
Track Severe Weather on mobile